Time;durP1;ratioP1;P1;durP2;ratioP2;P2;SDS_P1;SDS_P2;PMS_P1;PMS_P2;Temp;Humidity;BMP_temperature;BMP_pressure;BME280_temperature;BME280_humidity;BME280_pressure;Samples;Min_cycle;Max_cycle;Signal;HPM_P1;HPM_P2
2021/12/05 00:22:43;;;;;;;17.25;6.75;;;3.60;99.90;;;;;;5131349;27;20070;-59
2021/12/05 00:25:13;;;;;;;16.92;5.88;;;3.70;99.90;;;;;;5126099;27;20042;-59
2021/12/05 00:27:46;;;;;;;19.42;6.22;;;3.70;99.90;;;;;;5129160;27;20055;-58
2021/12/05 00:43:55;;;;;;;17.30;6.82;;;3.80;99.90;;;;;;5083540;27;20043;-58
2021/12/05 00:56:22;;;;;;;20.23;7.35;;;3.70;99.90;;;;;;5132880;27;20490;-59
2021/12/05 01:14:30;;;;;;;22.67;8.18;;;3.50;99.90;;;;;;5132606;27;20118;-58
2021/12/05 01:16:57;;;;;;;17.08;8.00;;;3.60;99.90;;;;;;5125158;27;20052;-58
2021/12/05 01:19:25;;;;;;;24.25;8.57;;;3.60;99.90;;;;;;5124540;27;20134;-59
2021/12/05 01:21:54;;;;;;;24.00;9.02;;;3.60;99.90;;;;;;5129550;27;20412;-59
2021/12/05 01:26:56;;;;;;;19.95;8.38;;;3.60;99.90;;;;;;5130539;27;20040;-58
2021/12/05 01:34:44;;;;;;;24.65;9.75;;;3.50;99.90;;;;;;5112843;27;20039;-58
2021/12/05 02:11:46;;;;;;;37.17;16.30;;;3.40;99.90;;;;;;5069315;28;20520;-59
2021/12/05 02:31:07;;;;;;;45.00;17.45;;;3.30;99.90;;;;;;5131016;27;20288;-58
2021/12/05 02:41:23;;;;;;;;;;;3.30;99.90;;;;;;5126473;27;20092;-59
2021/12/05 02:44:04;;;;;;;39.97;19.15;;;3.20;99.90;;;;;;5115864;27;19916;-58
2021/12/05 02:46:30;;;;;;;39.28;18.50;;;3.20;99.90;;;;;;5130210;27;20562;-59
2021/12/05 02:49:03;;;;;;;41.85;19.52;;;3.20;99.90;;;;;;5129724;27;20114;-58
2021/12/05 02:51:30;;;;;;;39.13;18.13;;;3.20;99.90;;;;;;5128876;27;20470;-59
2021/12/05 02:54:06;;;;;;;39.95;18.08;;;3.20;99.90;;;;;;5131011;27;20043;-58
2021/12/05 02:56:38;;;;;;;43.28;19.58;;;3.20;99.90;;;;;;5127820;27;20106;-57
2021/12/05 02:59:19;;;;;;;43.55;17.88;;;3.20;99.90;;;;;;5131579;27;20035;-58
2021/12/05 03:01:50;;;;;;;40.90;19.48;;;3.20;99.90;;;;;;5124361;27;20221;-57
2021/12/05 03:04:16;;;;;;;39.55;18.65;;;3.40;99.90;;;;;;5130064;27;20027;-59
2021/12/05 03:06:50;;;;;;;36.58;16.55;;;3.10;99.90;;;;;;5130359;27;20047;-58
2021/12/05 03:09:16;;;;;;;38.00;18.02;;;3.30;99.90;;;;;;5127982;27;20054;-58
2021/12/05 03:11:43;;;;;;;41.42;15.93;;;3.20;99.90;;;;;;5130368;28;20041;-58
2021/12/05 03:14:10;;;;;;;37.65;16.83;;;3.10;99.90;;;;;;5124179;27;20599;-58
2021/12/05 03:16:37;;;;;;;36.42;15.95;;;3.10;99.90;;;;;;5130751;28;20027;-58
2021/12/05 03:19:04;;;;;;;35.85;13.73;;;3.10;99.90;;;;;;5129511;27;20058;-57
2021/12/05 03:21:31;;;;;;;33.97;14.13;;;3.10;99.90;;;;;;5131803;27;20079;-58
2021/12/05 03:23:57;;;;;;;36.08;14.63;;;3.10;99.90;;;;;;5128849;27;20446;-59
2021/12/05 03:26:30;;;;;;;36.00;14.38;;;3.10;99.90;;;;;;5115558;27;20032;-58
2021/12/05 03:28:57;;;;;;;32.67;14.32;;;3.10;99.90;;;;;;5117688;28;20035;-58
2021/12/05 03:31:25;;;;;;;28.20;13.13;;;3.00;99.90;;;;;;5127665;27;20035;-59
2021/12/05 03:33:51;;;;;;;34.03;13.65;;;3.00;99.90;;;;;;5128839;27;20161;-59
2021/12/05 03:36:18;;;;;;;30.58;13.13;;;3.00;99.90;;;;;;5130647;27;20031;-58
2021/12/05 03:38:45;;;;;;;27.95;12.63;;;3.00;99.90;;;;;;5120761;27;20039;-58
2021/12/05 03:41:11;;;;;;;29.55;12.05;;;3.00;99.90;;;;;;5120128;27;20035;-58
2021/12/05 03:43:38;;;;;;;31.42;11.80;;;3.00;99.90;;;;;;5126720;27;20042;-59
2021/12/05 03:46:05;;;;;;;30.27;12.45;;;2.90;99.90;;;;;;5116618;28;20038;-58
2021/12/05 03:48:34;;;;;;;25.27;11.50;;;2.90;99.90;;;;;;5129700;27;20043;-57
2021/12/05 03:51:00;;;;;;;25.95;11.15;;;2.90;99.90;;;;;;5133007;27;20038;-58
2021/12/05 03:53:26;;;;;;;30.50;11.88;;;2.90;99.90;;;;;;5128800;27;20057;-57
2021/12/05 03:55:55;;;;;;;26.35;10.75;;;2.90;99.90;;;;;;5124260;27;20040;-58
2021/12/05 03:58:22;;;;;;;30.23;10.52;;;2.80;99.90;;;;;;5133725;27;20042;-58
2021/12/05 04:00:51;;;;;;;26.98;11.00;;;2.80;99.90;;;;;;5131885;27;20516;-58
2021/12/05 04:03:20;;;;;;;34.33;10.57;;;2.80;99.90;;;;;;5132289;27;20046;-57
2021/12/05 04:05:48;;;;;;;28.50;9.95;;;2.80;99.90;;;;;;5132295;27;20035;-57
2021/12/05 04:08:16;;;;;;;25.88;9.15;;;2.80;99.90;;;;;;5126687;27;20043;-58
2021/12/05 04:10:45;;;;;;;27.98;9.43;;;2.70;99.90;;;;;;5131775;27;20505;-58
2021/12/05 04:13:11;;;;;;;23.20;9.30;;;2.70;99.90;;;;;;5131230;27;20486;-59
2021/12/05 04:15:37;;;;;;;20.85;8.88;;;2.70;99.90;;;;;;5116077;27;20031;-59
2021/12/05 04:18:03;;;;;;;22.88;9.20;;;2.70;99.90;;;;;;5123326;27;20058;-58
2021/12/05 04:20:29;;;;;;;27.08;9.00;;;2.60;99.90;;;;;;5124530;27;20048;-57
2021/12/05 04:22:57;;;;;;;24.83;7.95;;;2.60;99.90;;;;;;5130136;27;20108;-58
2021/12/05 04:25:24;;;;;;;22.02;7.97;;;2.60;99.90;;;;;;5126525;27;20095;-58
2021/12/05 04:27:53;;;;;;;24.65;8.40;;;3.70;99.90;;;;;;5122782;27;20367;-58
2021/12/05 04:30:22;;;;;;;24.23;8.02;;;2.50;99.90;;;;;;5118697;27;20462;-56
2021/12/05 04:32:48;;;;;;;29.67;7.72;;;2.50;99.90;;;;;;5127650;27;20398;-58
2021/12/05 04:35:15;;;;;;;25.83;7.47;;;2.50;99.90;;;;;;5121578;27;20043;-58
2021/12/05 04:37:41;;;;;;;27.88;8.55;;;2.50;99.90;;;;;;5120196;27;21411;-58
2021/12/05 04:40:08;;;;;;;24.15;7.70;;;2.50;99.90;;;;;;5130163;27;20121;-57
2021/12/05 04:42:34;;;;;;;24.20;7.43;;;2.40;99.90;;;;;;5134282;27;20039;-58
2021/12/05 04:45:02;;;;;;;22.70;7.28;;;2.40;99.90;;;;;;5131813;27;20046;-58
2021/12/05 04:47:28;;;;;;;26.13;6.57;;;2.40;99.90;;;;;;5133218;27;20050;-59
2021/12/05 04:49:54;;;;;;;21.25;7.32;;;2.40;99.90;;;;;;5132396;27;20027;-58
2021/12/05 04:52:20;;;;;;;21.85;6.78;;;2.40;99.90;;;;;;5132733;27;20110;-59
2021/12/05 04:54:46;;;;;;;22.23;7.15;;;2.30;99.90;;;;;;5130469;27;20114;-58
2021/12/05 04:57:12;;;;;;;20.75;6.80;;;2.30;99.90;;;;;;5134227;27;20039;-58
2021/12/05 04:59:44;;;;;;;25.10;7.65;;;2.30;99.90;;;;;;5131807;27;20734;-58
2021/12/05 05:02:09;;;;;;;24.83;7.50;;;2.30;99.90;;;;;;5132313;27;20096;-57
2021/12/05 05:04:42;;;;;;;17.73;6.25;;;2.30;99.90;;;;;;5133926;27;20039;-59
2021/12/05 05:07:15;;;;;;;24.17;6.55;;;2.30;99.90;;;;;;5120346;27;20036;-58
2021/12/05 05:09:41;;;;;;;26.00;6.93;;;2.30;99.90;;;;;;5128589;27;20086;-59
2021/12/05 05:12:08;;;;;;;28.63;7.32;;;2.30;99.90;;;;;;5128193;27;20470;-59
2021/12/05 05:14:34;;;;;;;21.88;6.28;;;2.30;99.90;;;;;;5127512;27;20548;-58
2021/12/05 05:17:00;;;;;;;20.95;6.10;;;2.30;99.90;;;;;;5128830;27;20023;-58
2021/12/05 05:19:31;;;;;;;24.30;6.38;;;2.40;99.90;;;;;;5131583;27;20051;-58
2021/12/05 05:43:40;;;;;;;23.30;6.70;;;2.70;99.90;;;;;;5129053;27;20035;-60
2021/12/05 05:46:12;;;;;;;22.85;7.15;;;2.70;99.90;;;;;;5133189;27;20043;-57
2021/12/05 05:48:50;;;;;;;30.33;7.10;;;2.80;99.90;;;;;;5125653;27;20132;-59
2021/12/05 05:51:16;;;;;;;19.20;6.45;;;2.80;99.90;;;;;;5132933;27;20043;-59
2021/12/05 05:53:46;;;;;;;24.55;6.95;;;2.80;99.90;;;;;;5130440;27;20059;-57
2021/12/05 05:56:17;;;;;;;24.13;6.72;;;2.70;99.90;;;;;;5131120;27;20046;-58
2021/12/05 05:58:54;;;;;;;24.73;7.15;;;2.70;99.90;;;;;;5132863;27;20077;-58
2021/12/05 06:01:38;;;;;;;25.02;7.57;;;2.80;99.90;;;;;;5118758;27;20047;-59
2021/12/05 06:04:06;;;;;;;24.90;7.78;;;2.80;99.90;;;;;;5129652;27;20031;-57
2021/12/05 06:06:32;;;;;;;26.30;8.85;;;2.80;99.90;;;;;;5125733;27;20092;-58
2021/12/05 06:08:59;;;;;;;30.50;8.82;;;2.80;99.90;;;;;;5127969;27;20040;-58
2021/12/05 06:11:25;;;;;;;21.67;8.05;;;2.90;99.90;;;;;;5129683;27;20031;-59
2021/12/05 06:13:52;;;;;;;27.80;9.73;;;2.90;99.90;;;;;;5132334;27;20059;-58
2021/12/05 06:16:19;;;;;;;25.38;9.32;;;2.90;99.90;;;;;;5129261;27;20122;-58
2021/12/05 06:18:46;;;;;;;25.20;9.15;;;2.90;99.90;;;;;;5129610;27;20497;-59
2021/12/05 06:21:12;;;;;;;25.80;8.95;;;2.90;99.90;;;;;;5126104;27;20051;-59
2021/12/05 06:23:39;;;;;;;19.88;8.95;;;2.90;99.90;;;;;;5128510;27;20066;-58
2021/12/05 06:26:08;;;;;;;25.73;9.43;;;2.90;99.90;;;;;;5127549;27;20031;-59
2021/12/05 06:28:38;;;;;;;27.45;9.40;;;2.90;99.90;;;;;;5132091;27;20035;-59
2021/12/05 06:31:18;;;;;;;27.67;9.75;;;2.90;99.90;;;;;;5128753;27;20038;-58
2021/12/05 06:46:58;;;;;;;;;;;3.00;99.90;;;;;;5130558;27;20042;-60
2021/12/05 06:49:24;;;;;;;29.60;11.32;;;3.00;99.90;;;;;;5131170;27;19923;-58
2021/12/05 06:51:49;;;;;;;31.15;11.65;;;3.00;99.90;;;;;;5127243;27;20162;-58
2021/12/05 06:54:15;;;;;;;23.75;11.15;;;3.00;99.90;;;;;;5128463;27;20043;-60
2021/12/05 06:56:40;;;;;;;27.63;11.20;;;3.00;99.90;;;;;;5124397;27;20040;-59
2021/12/05 06:59:06;;;;;;;29.63;11.65;;;3.00;99.90;;;;;;5131815;27;20045;-59
2021/12/05 07:01:32;;;;;;;32.67;12.57;;;3.10;99.90;;;;;;5128960;27;20035;-58
2021/12/05 07:04:05;;;;;;;28.92;12.00;;;3.10;99.90;;;;;;5128829;27;20064;-58
2021/12/05 07:06:32;;;;;;;33.45;11.35;;;3.10;99.90;;;;;;5131708;27;20474;-58
2021/12/05 07:09:05;;;;;;;30.05;11.50;;;3.20;99.90;;;;;;5129355;27;20100;-59
2021/12/05 07:12:13;;;;;;;27.38;11.82;;;3.10;99.90;;;;;;5126153;27;20080;-58
2021/12/05 07:19:31;;;;;;;24.63;11.82;;;3.30;99.90;;;;;;5129814;28;20062;-59
2021/12/05 07:22:00;;;;;;;26.58;12.38;;;3.20;99.90;;;;;;5131922;27;20039;-58
2021/12/05 07:24:51;;;;;;;30.92;12.35;;;3.20;99.90;;;;;;5124152;27;20084;-58
2021/12/05 07:41:28;;;;;;;31.23;13.73;;;3.30;99.90;;;;;;5130303;27;20484;-58
2021/12/05 07:43:54;;;;;;;33.60;13.77;;;3.30;99.90;;;;;;5129972;27;20038;-60
2021/12/05 07:46:20;;;;;;;29.33;13.80;;;3.30;99.90;;;;;;5126434;27;20413;-58
2021/12/05 07:48:47;;;;;;;26.10;13.75;;;3.30;99.90;;;;;;5127299;27;20043;-59
2021/12/05 07:56:38;;;;;;;33.00;13.57;;;3.40;99.90;;;;;;5132367;27;20042;-59
2021/12/05 08:15:33;;;;;;;30.10;14.25;;;3.40;99.90;;;;;;5134967;27;20122;-58
2021/12/05 08:17:59;;;;;;;31.02;13.98;;;3.50;99.90;;;;;;5128595;27;20151;-57
2021/12/05 08:20:39;;;;;;;35.72;15.55;;;3.50;99.90;;;;;;5130091;27;20089;-59
2021/12/05 08:23:06;;;;;;;33.80;15.30;;;3.50;99.90;;;;;;5128958;27;20390;-58
2021/12/05 08:25:35;;;;;;;27.65;13.77;;;3.50;99.90;;;;;;5131073;27;20047;-59
2021/12/05 08:28:56;;;;;;;28.85;14.45;;;3.50;99.90;;;;;;5130535;27;20047;-58
2021/12/05 08:41:39;;;;;;;32.88;14.05;;;3.60;99.90;;;;;;5129563;27;19924;-58
2021/12/05 09:53:02;;;;;;;24.80;11.60;;;3.70;99.90;;;;;;5085551;27;20111;-59
2021/12/05 10:14:52;;;;;;;24.13;11.32;;;3.80;99.90;;;;;;5087629;27;20071;-61
2021/12/05 10:34:54;;;;;;;20.70;10.65;;;3.90;99.90;;;;;;5089791;27;20044;-60
2021/12/05 10:37:15;;;;;;;19.50;10.88;;;3.90;99.90;;;;;;5087543;27;20059;-58
2021/12/05 10:39:41;;;;;;;21.70;10.63;;;3.90;99.90;;;;;;5088437;27;20047;-60
2021/12/05 10:42:36;;;;;;;25.05;11.57;;;3.90;99.90;;;;;;5092891;27;20077;-60
2021/12/05 10:45:05;;;;;;;21.63;10.98;;;3.90;99.90;;;;;;5088837;27;20512;-59
2021/12/05 10:47:38;;;;;;;21.40;10.90;;;3.90;99.90;;;;;;5089944;27;20185;-60
2021/12/05 10:50:34;;;;;;;21.00;10.40;;;3.90;99.90;;;;;;5094283;27;20039;-58
2021/12/05 10:53:23;;;;;;;23.00;10.82;;;3.90;99.90;;;;;;5094422;27;20044;-60
2021/12/05 10:56:07;;;;;;;18.80;9.52;;;3.90;99.90;;;;;;5088724;27;20047;-59
2021/12/05 10:58:46;;;;;;;20.33;9.80;;;3.90;99.90;;;;;;5088563;27;20043;-59
2021/12/05 11:01:29;;;;;;;21.95;10.57;;;4.00;99.90;;;;;;5091126;27;20521;-59
2021/12/05 11:04:08;;;;;;;22.08;10.55;;;4.00;99.90;;;;;;5087823;27;20111;-58
2021/12/05 11:06:33;;;;;;;18.13;10.25;;;4.00;99.90;;;;;;5092075;27;20054;-59
2021/12/05 11:09:13;;;;;;;25.85;10.35;;;4.00;99.90;;;;;;5091242;27;20043;-58
2021/12/05 11:11:42;;;;;;;24.75;10.63;;;4.00;99.90;;;;;;5090034;27;20055;-60
2021/12/05 11:14:21;;;;;;;19.02;10.98;;;4.00;99.90;;;;;;5093988;27;20487;-59
2021/12/05 11:16:56;;;;;;;22.08;9.90;;;4.10;99.90;;;;;;5092503;28;20376;-59
2021/12/05 11:19:32;;;;;;;19.80;10.25;;;4.10;99.90;;;;;;5092993;28;20059;-58
2021/12/05 11:22:20;;;;;;;20.67;10.10;;;4.10;99.90;;;;;;5088938;28;20054;-60
2021/12/05 11:25:03;;;;;;;23.40;10.82;;;4.10;99.90;;;;;;5092060;28;20048;-59
2021/12/05 11:27:38;;;;;;;20.48;9.68;;;5.10;99.90;;;;;;5093994;28;20092;-59
2021/12/05 11:30:17;;;;;;;20.40;10.18;;;4.20;99.90;;;;;;5090424;28;20490;-59
2021/12/05 11:33:01;;;;;;;20.45;11.20;;;4.30;99.90;;;;;;5093633;28;20154;-59
2021/12/05 11:35:57;;;;;;;21.50;9.48;;;4.30;99.90;;;;;;5091804;28;20047;-59
2021/12/05 11:38:31;;;;;;;16.25;9.00;;;4.40;99.90;;;;;;5090790;28;20425;-58
2021/12/05 11:41:11;;;;;;;21.75;10.30;;;4.40;99.90;;;;;;5087514;27;20062;-59
2021/12/05 11:43:42;;;;;;;17.42;9.63;;;4.50;99.90;;;;;;5092162;27;20043;-59
2021/12/05 11:46:14;;;;;;;14.10;9.10;;;4.50;99.90;;;;;;5118481;28;20091;-59
2021/12/05 11:48:48;;;;;;;19.80;9.60;;;4.50;99.90;;;;;;5129262;27;20126;-58
2021/12/05 11:51:35;;;;;;;18.95;9.95;;;4.60;99.90;;;;;;5124463;27;20044;-59
2021/12/05 11:54:09;;;;;;;14.13;9.45;;;4.70;99.90;;;;;;5117615;28;20035;-59
2021/12/05 11:56:34;;;;;;;14.55;8.73;;;4.70;99.90;;;;;;5097452;28;20047;-60
2021/12/05 11:59:11;;;;;;;14.93;9.57;;;4.70;99.90;;;;;;5093654;28;20058;-59
2021/12/05 12:01:41;;;;;;;14.57;9.20;;;4.80;99.90;;;;;;5091983;28;20088;-60
2021/12/05 12:04:10;;;;;;;17.65;8.85;;;4.80;99.90;;;;;;5091064;28;20486;-58
2021/12/05 12:06:36;;;;;;;16.27;9.45;;;4.90;99.90;;;;;;5093929;27;20039;-60
2021/12/05 12:09:03;;;;;;;12.15;7.28;;;4.80;99.90;;;;;;5094857;28;20108;-59
2021/12/05 12:11:29;;;;;;;13.65;8.38;;;4.90;99.90;;;;;;5095466;27;20046;-59
2021/12/05 12:13:54;;;;;;;14.70;8.48;;;4.90;99.90;;;;;;5091627;27;20035;-59
2021/12/05 12:16:21;;;;;;;14.48;8.10;;;4.90;99.90;;;;;;5096777;27;20762;-60
2021/12/05 12:18:49;;;;;;;11.60;7.10;;;5.00;99.90;;;;;;5095524;27;20214;-59
2021/12/05 12:21:25;;;;;;;10.30;6.60;;;4.90;99.90;;;;;;5094774;27;20073;-60
2021/12/05 12:23:54;;;;;;;12.57;7.35;;;5.00;99.90;;;;;;5093638;27;20047;-59
2021/12/05 12:26:20;;;;;;;12.68;7.50;;;5.00;99.90;;;;;;5093903;27;20050;-60
2021/12/05 12:28:47;;;;;;;12.23;7.88;;;5.00;99.90;;;;;;5095482;27;20100;-58
2021/12/05 12:31:25;;;;;;;13.88;7.00;;;5.00;99.90;;;;;;5092361;27;20050;-59
2021/12/05 12:34:02;;;;;;;10.93;6.93;;;5.00;99.90;;;;;;5098345;27;20051;-60
2021/12/05 12:36:40;;;;;;;11.30;7.20;;;5.10;99.90;;;;;;5093793;27;20398;-59
2021/12/05 12:39:31;;;;;;;12.13;7.03;;;5.10;99.90;;;;;;5094655;27;20088;-57
2021/12/05 12:42:25;;;;;;;12.05;6.47;;;5.10;99.90;;;;;;5095121;27;20071;-58
2021/12/05 12:45:06;;;;;;;12.03;6.63;;;5.10;99.90;;;;;;5091315;27;20047;-58
2021/12/05 12:47:37;;;;;;;14.18;6.80;;;5.10;99.90;;;;;;5093760;27;20312;-58
2021/12/05 12:50:19;;;;;;;11.63;7.13;;;5.10;99.90;;;;;;5094769;27;20046;-58
2021/12/05 12:53:09;;;;;;;11.18;7.43;;;5.10;99.90;;;;;;5094457;27;20410;-58
2021/12/05 12:55:37;;;;;;;9.88;6.65;;;5.00;99.90;;;;;;5095556;27;20129;-59
2021/12/05 12:58:06;;;;;;;10.35;6.85;;;4.90;99.90;;;;;;5097251;27;22581;-57
2021/12/05 13:00:36;;;;;;;12.10;7.22;;;4.90;99.90;;;;;;5095826;27;20046;-58
2021/12/05 13:03:15;;;;;;;10.13;6.80;;;4.90;99.90;;;;;;5093424;27;20392;-58
2021/12/05 13:11:15;;;;;;;10.75;7.03;;;5.20;99.90;;;;;;5095079;27;20401;-58
2021/12/05 13:13:44;;;;;;;12.95;7.68;;;5.10;99.90;;;;;;5097551;27;20047;-59
2021/12/05 13:16:15;;;;;;;10.27;7.00;;;4.80;99.90;;;;;;5095630;27;20043;-57
2021/12/05 13:18:43;;;;;;;12.75;6.97;;;4.80;99.90;;;;;;5113023;27;20059;-57
2021/12/05 13:21:25;;;;;;;11.50;7.18;;;4.80;99.90;;;;;;5133133;27;20039;-57
2021/12/05 13:23:52;;;;;;;10.98;6.93;;;4.70;99.90;;;;;;5130857;27;20058;-58
2021/12/05 13:26:35;;;;;;;11.52;7.47;;;4.70;99.90;;;;;;5123086;27;20386;-59
2021/12/05 13:29:25;;;;;;;12.27;7.70;;;4.70;99.90;;;;;;5130240;27;20039;-58
2021/12/05 13:32:08;;;;;;;14.32;7.93;;;4.70;99.90;;;;;;5130484;27;20039;-58
2021/12/05 13:34:51;;;;;;;14.23;8.23;;;4.70;99.90;;;;;;5128074;27;20118;-57
2021/12/05 13:37:16;;;;;;;13.75;8.05;;;4.70;99.90;;;;;;5127714;27;20070;-59
2021/12/05 13:39:46;;;;;;;14.73;7.20;;;4.70;99.90;;;;;;5125671;27;20109;-59
2021/12/05 13:42:16;;;;;;;13.48;7.32;;;4.70;99.90;;;;;;5129941;27;20118;-58
2021/12/05 13:45:04;;;;;;;10.80;7.20;;;4.70;99.90;;;;;;5112133;27;20043;-58
2021/12/05 13:47:39;;;;;;;13.15;7.13;;;4.70;99.90;;;;;;5116311;27;20054;-58
2021/12/05 13:50:23;;;;;;;13.68;7.88;;;4.70;99.90;;;;;;5127344;27;20046;-59
2021/12/05 13:53:07;;;;;;;13.65;8.00;;;4.70;99.90;;;;;;5125191;27;20100;-58
2021/12/05 13:55:53;;;;;;;11.43;7.10;;;4.70;99.90;;;;;;5130386;27;20071;-59
2021/12/05 13:58:43;;;;;;;11.90;7.38;;;4.70;99.90;;;;;;5130860;27;20574;-58
2021/12/05 14:01:21;;;;;;;13.35;7.63;;;4.70;99.90;;;;;;5133149;27;20035;-60
2021/12/05 14:03:58;;;;;;;13.68;8.15;;;4.70;99.90;;;;;;5123776;27;20478;-58
2021/12/05 14:07:01;;;;;;;12.68;7.43;;;4.80;99.90;;;;;;5131513;27;20474;-61
2021/12/05 14:09:32;;;;;;;11.07;6.82;;;4.80;99.90;;;;;;5131027;27;20178;-58
2021/12/05 14:12:19;;;;;;;10.75;7.05;;;4.80;99.90;;;;;;5125400;27;20558;-58
2021/12/05 14:14:59;;;;;;;12.55;7.57;;;4.80;99.90;;;;;;5128468;27;20028;-58
2021/12/05 14:17:29;;;;;;;13.02;7.70;;;4.80;99.90;;;;;;5126896;27;20061;-59
2021/12/05 14:19:59;;;;;;;12.50;6.80;;;4.80;99.90;;;;;;5103210;27;20071;-59
2021/12/05 14:22:31;;;;;;;13.93;6.95;;;4.80;99.90;;;;;;5110388;27;20282;-60
2021/12/05 14:25:00;;;;;;;12.07;6.72;;;4.80;99.90;;;;;;5095145;27;20056;-58
2021/12/05 14:27:33;;;;;;;13.05;7.45;;;4.90;99.90;;;;;;5089359;27;20533;-59
2021/12/05 14:30:00;;;;;;;12.35;7.88;;;4.80;99.90;;;;;;5091445;27;20082;-60
2021/12/05 14:32:29;;;;;;;12.68;7.53;;;4.80;99.90;;;;;;5092486;27;20078;-59
2021/12/05 14:35:02;;;;;;;15.55;8.27;;;4.80;99.90;;;;;;5101168;27;20031;-59
2021/12/05 14:37:33;;;;;;;16.30;8.30;;;4.80;99.90;;;;;;5130036;27;20087;-59
2021/12/05 14:40:03;;;;;;;13.73;7.55;;;4.80;99.90;;;;;;5130834;27;20042;-59
2021/12/05 14:42:33;;;;;;;13.50;7.47;;;4.80;99.90;;;;;;5099624;27;20054;-59
2021/12/05 14:45:03;;;;;;;11.93;6.85;;;4.80;99.90;;;;;;5091806;27;20623;-59
2021/12/05 14:47:33;;;;;;;12.10;7.10;;;4.80;99.90;;;;;;5089334;27;20044;-59
2021/12/05 14:50:04;;;;;;;13.20;7.20;;;4.80;99.90;;;;;;5091311;27;21775;-58
2021/12/05 14:52:34;;;;;;;11.93;7.20;;;4.80;99.90;;;;;;5091377;27;20063;-58
2021/12/05 14:55:03;;;;;;;12.65;7.32;;;4.80;99.90;;;;;;5092056;27;20043;-59
2021/12/05 14:57:34;;;;;;;11.55;6.72;;;4.80;99.90;;;;;;5093461;27;20375;-58
2021/12/05 15:00:17;;;;;;;11.88;8.07;;;4.80;99.90;;;;;;5088481;27;20035;-59
2021/12/05 15:02:43;;;;;;;11.30;6.63;;;4.70;99.90;;;;;;5116293;27;20514;-59
2021/12/05 15:05:18;;;;;;;11.45;7.40;;;4.70;99.90;;;;;;5131202;27;20031;-59
2021/12/05 15:07:45;;;;;;;11.93;7.82;;;4.70;99.90;;;;;;5125916;27;20035;-59
2021/12/05 15:10:20;;;;;;;13.93;8.88;;;4.70;99.90;;;;;;5131679;27;20119;-59
2021/12/05 15:12:48;;;;;;;15.05;8.70;;;4.70;99.90;;;;;;5125856;27;20108;-58
2021/12/05 15:15:14;;;;;;;17.75;10.55;;;4.70;99.90;;;;;;5131692;27;20043;-59
2021/12/05 15:17:43;;;;;;;20.35;11.68;;;4.60;99.90;;;;;;5129056;28;20038;-59
2021/12/05 15:20:17;;;;;;;16.60;10.00;;;4.70;99.90;;;;;;5124534;27;20046;-58
2021/12/05 15:22:46;;;;;;;16.17;10.63;;;4.70;99.90;;;;;;5092498;27;20043;-59
2021/12/05 15:25:14;;;;;;;17.77;9.13;;;4.40;99.90;;;;;;5088553;28;20055;-59
2021/12/05 15:27:42;;;;;;;14.20;8.57;;;4.60;99.90;;;;;;5086946;28;20085;-59
2021/12/05 15:30:13;;;;;;;13.32;8.27;;;4.60;99.90;;;;;;5093539;28;20090;-60
2021/12/05 15:32:39;;;;;;;13.15;8.82;;;4.60;99.90;;;;;;5087966;28;20082;-59
2021/12/05 15:35:09;;;;;;;12.80;8.40;;;4.70;99.90;;;;;;5084324;27;20058;-59
2021/12/05 15:37:35;;;;;;;13.95;8.70;;;4.60;99.90;;;;;;5091722;27;20046;-59
2021/12/05 15:40:03;;;;;;;13.57;9.02;;;4.60;99.90;;;;;;5088466;28;20055;-59
2021/12/05 15:42:34;;;;;;;13.32;9.30;;;5.00;99.90;;;;;;5088956;28;20046;-58
2021/12/05 15:45:04;;;;;;;17.88;11.02;;;4.60;99.90;;;;;;5091874;27;20071;-58
2021/12/05 15:47:33;;;;;;;15.63;10.55;;;4.60;99.90;;;;;;5093572;27;20466;-59
2021/12/05 15:50:17;;;;;;;15.48;10.25;;;4.60;99.90;;;;;;5092054;27;20031;-59
2021/12/05 15:52:55;;;;;;;16.45;9.75;;;4.60;99.90;;;;;;5082212;27;20408;-58
2021/12/05 15:55:35;;;;;;;17.10;10.45;;;4.60;99.90;;;;;;5092737;27;20474;-59
2021/12/05 15:58:03;;;;;;;19.70;10.63;;;4.60;99.90;;;;;;5092106;27;20766;-59
2021/12/05 16:00:32;;;;;;;20.42;10.20;;;4.60;99.90;;;;;;5093278;27;20066;-59
2021/12/05 16:03:02;;;;;;;14.77;10.18;;;4.60;99.90;;;;;;5094781;27;20046;-59
2021/12/05 16:05:28;;;;;;;14.88;9.93;;;4.50;99.90;;;;;;5095898;27;20047;-59
2021/12/05 16:08:18;;;;;;;16.52;10.65;;;4.50;99.90;;;;;;5091884;27;20047;-59
2021/12/05 16:10:48;;;;;;;16.20;9.95;;;4.50;99.90;;;;;;5092562;27;20039;-59
2021/12/05 16:13:17;;;;;;;17.15;10.95;;;4.40;99.90;;;;;;5092702;27;20035;-60
2021/12/05 16:15:47;;;;;;;15.77;10.10;;;4.40;99.90;;;;;;5092303;27;20750;-59
2021/12/05 16:18:14;;;;;;;15.90;10.23;;;4.40;99.90;;;;;;5095718;27;20116;-58
2021/12/05 16:20:44;;;;;;;17.10;9.88;;;4.30;99.90;;;;;;5094882;27;20044;-59
2021/12/05 16:23:13;;;;;;;16.75;10.40;;;4.30;99.90;;;;;;5091583;27;20053;-59
2021/12/05 16:25:47;;;;;;;16.58;11.20;;;4.30;99.90;;;;;;5095599;27;20047;-60
2021/12/05 16:28:14;;;;;;;14.82;10.48;;;4.30;99.90;;;;;;5098226;27;20055;-59
2021/12/05 16:30:47;;;;;;;16.38;10.90;;;4.30;99.90;;;;;;5092750;27;20058;-59
2021/12/05 16:33:16;;;;;;;18.80;11.57;;;4.30;99.90;;;;;;5094427;27;20557;-59
2021/12/05 16:35:48;;;;;;;20.83;11.90;;;4.30;99.90;;;;;;5092820;27;20054;-59
2021/12/05 16:38:30;;;;;;;17.83;12.40;;;4.20;99.90;;;;;;5096182;27;20082;-59
2021/12/05 16:41:00;;;;;;;18.23;12.02;;;4.20;99.90;;;;;;5093346;27;20039;-59
2021/12/05 16:43:28;;;;;;;18.40;12.13;;;4.20;99.90;;;;;;5093789;27;20043;-59
2021/12/05 16:46:17;;;;;;;17.13;11.93;;;4.20;99.90;;;;;;5092421;27;20047;-59
2021/12/05 16:48:44;;;;;;;18.90;12.40;;;4.20;99.90;;;;;;5120701;27;20375;-59
2021/12/05 16:51:34;;;;;;;19.67;12.25;;;4.20;99.90;;;;;;5134206;27;20032;-59
2021/12/05 16:54:12;;;;;;;19.10;11.98;;;4.20;99.90;;;;;;5132506;27;20039;-58
2021/12/05 16:56:44;;;;;;;21.70;13.93;;;4.50;99.90;;;;;;5131607;27;20039;-58
2021/12/05 16:59:16;;;;;;;22.90;13.43;;;4.20;99.90;;;;;;5130646;27;20031;-59
2021/12/05 17:01:42;;;;;;;21.67;13.35;;;4.20;99.90;;;;;;5134358;27;20043;-59
2021/12/05 17:04:08;;;;;;;22.10;13.85;;;4.20;99.90;;;;;;5127775;27;20355;-59
2021/12/05 17:06:46;;;;;;;22.50;14.45;;;4.20;99.90;;;;;;5134316;27;20043;-60
2021/12/05 17:09:13;;;;;;;24.08;15.35;;;4.20;99.90;;;;;;5122323;27;20565;-59
2021/12/05 17:11:39;;;;;;;22.83;15.10;;;4.20;99.90;;;;;;5131384;27;20038;-59
2021/12/05 17:14:05;;;;;;;29.70;18.05;;;4.20;99.90;;;;;;5131357;27;20031;-59
2021/12/05 17:16:32;;;;;;;30.73;18.52;;;4.20;99.90;;;;;;5130853;27;20034;-59
2021/12/05 17:19:08;;;;;;;33.35;18.88;;;4.20;99.90;;;;;;5117074;27;20513;-59
2021/12/05 17:21:49;;;;;;;31.55;18.63;;;4.20;99.90;;;;;;5120561;27;20051;-59
2021/12/05 17:24:23;;;;;;;29.30;18.55;;;4.20;99.90;;;;;;5093757;27;20048;-58
2021/12/05 17:26:55;;;;;;;26.67;18.08;;;4.20;99.90;;;;;;5090811;27;20051;-58
2021/12/05 17:29:49;;;;;;;24.13;16.17;;;4.20;99.90;;;;;;5093583;27;20062;-58
2021/12/05 17:32:20;;;;;;;27.55;16.30;;;4.20;99.90;;;;;;5095182;27;20633;-57
2021/12/05 17:34:47;;;;;;;29.38;17.70;;;4.20;99.90;;;;;;5094283;27;20044;-58
2021/12/05 17:37:29;;;;;;;27.95;17.67;;;4.20;99.90;;;;;;5093399;27;20062;-58
2021/12/05 17:39:58;;;;;;;26.52;17.63;;;4.20;99.90;;;;;;5092581;27;20050;-58
2021/12/05 17:42:26;;;;;;;23.70;16.20;;;4.10;99.90;;;;;;5089202;27;20208;-58
2021/12/05 17:44:59;;;;;;;28.30;16.65;;;4.20;99.90;;;;;;5083289;27;20063;-58
2021/12/05 17:47:25;;;;;;;26.55;15.57;;;4.10;99.90;;;;;;5085098;27;20104;-58
2021/12/05 17:49:55;;;;;;;26.00;17.48;;;4.20;99.90;;;;;;5094287;27;20043;-58
2021/12/05 17:52:23;;;;;;;25.73;15.90;;;4.20;99.90;;;;;;5092566;27;20043;-58
2021/12/05 17:55:28;;;;;;;24.63;15.10;;;4.20;99.90;;;;;;5092237;27;20356;-58
2021/12/05 17:57:48;;;;;;;23.27;15.13;;;4.10;99.90;;;;;;5089203;27;20522;-58
2021/12/05 18:00:35;;;;;;;25.08;14.57;;;4.20;99.90;;;;;;5093879;27;20044;-59
2021/12/05 18:03:05;;;;;;;22.58;14.60;;;4.20;99.90;;;;;;5093742;27;20031;-58
2021/12/05 18:05:41;;;;;;;25.38;15.30;;;3.50;99.90;;;;;;5096226;27;20143;-58
2021/12/05 18:08:10;;;;;;;21.50;14.80;;;4.20;99.90;;;;;;5090305;27;20074;-58
2021/12/05 18:10:40;;;;;;;27.77;16.85;;;4.20;99.90;;;;;;5091984;27;20035;-58
2021/12/05 18:13:10;;;;;;;26.42;15.68;;;4.20;99.90;;;;;;5090344;27;20105;-59
2021/12/05 18:15:38;;;;;;;25.20;16.42;;;4.20;99.90;;;;;;5089550;27;20474;-58
2021/12/05 18:18:05;;;;;;;27.10;16.80;;;4.20;99.90;;;;;;5094559;27;20575;-58
2021/12/05 18:20:33;;;;;;;23.92;15.57;;;4.20;99.90;;;;;;5093125;27;20247;-58
2021/12/05 18:23:01;;;;;;;26.10;16.60;;;4.20;99.90;;;;;;5091088;27;20067;-58
2021/12/05 18:25:28;;;;;;;26.73;16.15;;;4.20;99.90;;;;;;5092361;27;20043;-58
2021/12/05 18:27:54;;;;;;;24.38;15.80;;;4.20;99.90;;;;;;5090241;27;20058;-58
2021/12/05 18:30:22;;;;;;;27.75;16.67;;;4.20;99.90;;;;;;5091568;27;20042;-58
2021/12/05 18:32:49;;;;;;;27.50;16.88;;;4.20;99.90;;;;;;5093241;27;20095;-58